Time;durP1;ratioP1;P1;durP2;ratioP2;P2;SDS_P1;SDS_P2;PMS_P1;PMS_P2;Temp;Humidity;BMP_temperature;BMP_pressure;BME280_temperature;BME280_humidity;BME280_pressure;Samples;Min_cycle;Max_cycle;Signal;HPM_P1;HPM_P2
2021/01/19 00:02:20;;;;;;;6.50;2.93;;;;;;;0.02;82.34;99737.94;5052374;28;20060;-83
2021/01/19 00:04:47;;;;;;;3.80;2.47;;;;;;;-0.05;81.43;99723.28;5051208;28;20048;-82
2021/01/19 00:07:17;;;;;;;4.10;3.10;;;;;;;0.06;81.69;99735.91;5051829;28;20052;-82
2021/01/19 00:09:43;;;;;;;5.72;2.70;;;;;;;-0.06;81.59;99711.72;5051281;28;20057;-82
2021/01/19 00:12:10;;;;;;;6.88;2.85;;;;;;;0.01;81.51;99720.19;5051590;28;20147;-83
2021/01/19 00:14:39;;;;;;;4.93;2.63;;;;;;;0.11;80.10;99723.94;5040038;28;20102;-83
2021/01/19 00:17:05;;;;;;;4.10;2.33;;;;;;;0.14;80.50;99723.72;5051369;28;20053;-82
2021/01/19 00:19:32;;;;;;;2.87;2.17;;;;;;;0.03;80.22;99714.72;5052195;28;20052;-83
2021/01/19 00:21:59;;;;;;;4.13;2.60;;;;;;;0.01;81.29;99714.00;5051595;28;20115;-83
2021/01/19 00:24:26;;;;;;;5.53;2.37;;;;;;;0.08;81.20;99723.31;5051721;28;20060;-83
2021/01/19 00:26:52;;;;;;;5.23;2.33;;;;;;;-0.03;81.35;99700.81;5051431;28;20053;-81
2021/01/19 00:29:19;;;;;;;5.93;2.67;;;;;;;0.14;80.52;99726.41;5052088;28;20501;-82
2021/01/19 00:31:45;;;;;;;8.00;2.63;;;;;;;0.10;80.59;99729.41;5051507;28;20378;-83
2021/01/19 00:34:11;;;;;;;5.70;2.80;;;;;;;0.15;80.71;99730.81;5050978;28;20064;-83
2021/01/19 00:36:38;;;;;;;5.53;2.70;;;;;;;0.00;80.91;99702.44;5051946;28;20076;-83
2021/01/19 00:39:05;;;;;;;3.93;2.30;;;;;;;0.16;80.81;99719.13;5051642;28;20181;-82
2021/01/19 00:41:32;;;;;;;4.40;2.47;;;;;;;0.13;80.86;99718.50;5051285;28;20075;-83
2021/01/19 00:43:58;;;;;;;4.43;2.50;;;;;;;0.17;80.36;99723.53;5051723;28;20053;-82
2021/01/19 00:46:24;;;;;;;8.03;2.73;;;;;;;0.16;80.65;99727.16;5051580;28;20234;-83
2021/01/19 00:48:51;;;;;;;5.13;2.47;;;;;;;0.10;80.49;99718.69;5051499;28;20114;-83
2021/01/19 00:51:19;;;;;;;5.27;2.70;;;;;;;0.13;80.65;99699.78;5050888;28;20047;-82
2021/01/19 00:53:45;;;;;;;3.97;1.93;;;;;;;0.06;80.51;99712.72;5049746;28;20037;-82
2021/01/19 00:56:12;;;;;;;6.10;2.20;;;;;;;0.08;80.33;99713.47;5051353;28;20049;-82
2021/01/19 00:58:39;;;;;;;4.87;2.27;;;;;;;0.01;80.56;99685.44;5051129;28;20048;-83
2021/01/19 01:01:05;;;;;;;3.73;2.27;;;;;;;0.09;80.65;99712.50;5051068;28;20045;-83
2021/01/19 01:03:33;;;;;;;3.03;2.57;;;;;;;0.04;80.34;99695.06;5051454;28;20098;-83
2021/01/19 01:06:00;;;;;;;3.30;1.97;;;;;;;0.03;80.42;99698.69;5050456;28;20460;-83
2021/01/19 01:08:26;;;;;;;8.15;2.30;;;;;;;-0.01;80.62;99692.72;5051585;28;20485;-82
2021/01/19 01:10:53;;;;;;;3.40;2.60;;;;;;;-0.02;80.60;99682.97;5050361;28;20494;-82
2021/01/19 01:13:20;;;;;;;7.77;2.33;;;;;;;-0.12;79.65;99657.81;5050806;28;20102;-82
2021/01/19 01:15:47;;;;;;;11.80;3.43;;;;;;;0.01;80.27;99685.44;5051051;28;20041;-80
2021/01/19 01:18:15;;;;;;;2.80;1.97;;;;;;;-0.05;80.25;99676.00;5051063;28;20045;-81
2021/01/19 01:20:42;;;;;;;3.47;1.93;;;;;;;0.02;80.34;99683.63;5033304;28;20052;-81
2021/01/19 01:23:13;;;;;;;2.87;1.80;;;;;;;-0.08;79.70;99670.03;5051361;28;20049;-80
2021/01/19 01:25:40;;;;;;;2.80;1.90;;;;;;;-0.02;80.23;99683.81;5050741;28;20477;-81
2021/01/19 01:28:06;;;;;;;5.40;2.50;;;;;;;-0.16;79.31;99667.03;5050954;28;20494;-81
2021/01/19 01:30:34;;;;;;;7.70;2.17;;;;;;;-0.06;79.75;99693.03;5052997;28;20045;-81
2021/01/19 01:33:00;;;;;;;3.93;2.10;;;;;;;0.02;80.00;99695.16;5054562;28;20049;-81
2021/01/19 01:35:26;;;;;;;5.77;2.37;;;;;;;-0.14;80.40;99681.97;5041954;28;20065;-81
2021/01/19 01:37:54;;;;;;;5.30;2.10;;;;;;;-0.07;80.01;99680.59;5044769;28;20451;-81
2021/01/19 01:40:23;;;;;;;6.33;1.97;;;;;;;-0.13;80.31;99673.00;5054161;28;20105;-81
2021/01/19 01:42:50;;;;;;;4.80;2.00;;;;;;;-0.02;80.30;99685.63;5054580;28;20061;-81
2021/01/19 01:45:19;;;;;;;4.17;2.40;;;;;;;-0.16;80.53;99669.69;5054851;28;20440;-81
2021/01/19 01:47:47;;;;;;;4.15;2.08;;;;;;;-0.32;80.52;99653.84;5054829;28;20481;-80
2021/01/19 01:50:14;;;;;;;3.93;2.47;;;;;;;-0.27;80.74;99665.06;5053855;28;20048;-83
2021/01/19 01:52:41;;;;;;;8.13;2.80;;;;;;;-0.25;80.61;99664.00;5054994;28;20489;-81
2021/01/19 01:55:09;;;;;;;5.97;2.30;;;;;;;-0.22;81.01;99668.28;5053518;28;20076;-80
2021/01/19 01:57:37;;;;;;;7.57;2.70;;;;;;;-0.22;81.13;99657.59;5054736;28;20110;-83
2021/01/19 02:00:06;;;;;;;5.37;1.97;;;;;;;-0.21;80.88;99654.81;5054446;28;20409;-83
2021/01/19 02:02:33;;;;;;;6.27;2.20;;;;;;;-0.40;80.93;99631.16;5055053;28;20204;-83
2021/01/19 02:05:00;;;;;;;4.77;2.40;;;;;;;-0.32;80.92;99645.81;5054110;28;20528;-83
2021/01/19 02:07:36;;;;;;;4.90;2.30;;;;;;;-0.40;80.64;99636.50;5053940;28;20584;-81
2021/01/19 02:10:09;;;;;;;6.80;2.63;;;;;;;-0.49;80.53;99622.91;5054445;28;20049;-83
2021/01/19 02:12:44;;;;;;;6.77;2.23;;;;;;;-0.52;81.11;99607.94;5054296;28;20095;-83
2021/01/19 02:15:11;;;;;;;4.27;2.33;;;;;;;-0.38;80.64;99634.59;5054420;28;20056;-83
2021/01/19 02:17:47;;;;;;;4.27;2.40;;;;;;;-0.62;81.41;99601.50;5053551;28;20110;-83
2021/01/19 02:20:50;;;;;;;4.30;2.27;;;;;;;-0.49;80.50;99615.75;5054565;28;20049;-83
2021/01/19 02:23:22;;;;;;;4.07;2.30;;;;;;;-0.57;81.00;99612.75;5043124;28;20051;-83
2021/01/19 02:26:22;;;;;;;4.60;2.27;;;;;;;-0.52;80.55;99609.78;5054443;28;20060;-82
2021/01/19 02:28:52;;;;;;;2.13;1.95;;;;;;;-0.65;81.31;99588.38;5053448;28;20056;-83
2021/01/19 02:31:51;;;;;;;7.45;2.40;;;;;;;-0.68;80.85;99605.44;5053241;28;20041;-83
2021/01/19 02:34:23;;;;;;;2.85;2.13;;;;;;;-0.80;80.59;99576.91;5051141;28;20049;-84
2021/01/19 02:36:55;;;;;;;2.73;2.23;;;;;;;-0.85;80.45;99585.22;5054519;28;20103;-83
2021/01/19 02:39:31;;;;;;;3.80;2.30;;;;;;;-0.70;81.11;99618.06;5053951;28;20045;-83
2021/01/19 02:42:04;;;;;;;2.77;2.23;;;;;;;-0.76;80.98;99597.09;5053504;28;20045;-81
2021/01/19 02:44:31;;;;;;;4.70;2.00;;;;;;;-0.72;80.83;99610.16;5053448;28;20057;-81
2021/01/19 02:46:59;;;;;;;8.07;2.40;;;;;;;-0.87;81.20;99592.47;5054225;28;20048;-84
2021/01/19 02:49:26;;;;;;;2.80;2.10;;;;;;;-0.83;81.41;99569.94;5053093;28;20132;-83
2021/01/19 02:51:54;;;;;;;6.43;2.23;;;;;;;-0.85;81.49;99577.22;5053459;28;20132;-84
2021/01/19 02:54:21;;;;;;;3.97;2.43;;;;;;;-0.70;81.32;99586.00;5037795;28;20041;-81
2021/01/19 02:57:00;;;;;;;5.70;2.83;;;;;;;-0.63;81.67;99591.78;5053852;28;20052;-81
2021/01/19 02:59:37;;;;;;;3.40;2.43;;;;;;;-0.69;81.87;99587.72;5054148;28;20053;-83
2021/01/19 03:02:11;;;;;;;7.80;2.47;;;;;;;-0.66;81.00;99592.88;5053694;28;20052;-83
2021/01/19 03:04:39;;;;;;;1.97;1.77;;;;;;;-0.71;81.54;99568.28;5053316;28;20053;-84
2021/01/19 03:07:08;;;;;;;10.77;2.37;;;;;;;-0.57;80.99;99591.41;5053758;28;20057;-84
2021/01/19 03:09:38;;;;;;;6.25;2.25;;;;;;;-0.55;81.34;99589.47;5053938;28;20053;-84
2021/01/19 03:12:06;;;;;;;7.20;2.50;;;;;;;-0.54;80.83;99586.69;5053412;28;20052;-84
2021/01/19 03:14:36;;;;;;;3.13;1.83;;;;;;;-0.62;80.63;99578.31;5052983;28;20048;-84
2021/01/19 03:17:06;;;;;;;6.15;2.50;;;;;;;-0.63;80.65;99570.41;5053288;28;20119;-84
2021/01/19 03:19:37;;;;;;;5.27;2.77;;;;;;;-0.78;81.06;99559.81;5047134;28;20501;-84
2021/01/19 03:22:04;;;;;;;4.20;2.07;;;;;;;-0.67;80.59;99561.78;5053906;28;20059;-82
2021/01/19 03:24:30;;;;;;;3.87;2.10;;;;;;;-0.62;80.52;99564.97;5052595;28;20053;-82
2021/01/19 03:26:57;;;;;;;6.00;2.70;;;;;;;-0.81;79.87;99536.00;5053412;28;20056;-81
2021/01/19 03:29:23;;;;;;;2.43;1.97;;;;;;;-0.76;79.95;99546.38;5052862;28;20082;-82
2021/01/19 03:31:50;;;;;;;8.13;2.33;;;;;;;-0.67;80.73;99552.91;5052591;28;20044;-84
2021/01/19 03:34:17;;;;;;;2.67;2.30;;;;;;;-0.67;80.52;99544.91;5049053;28;20052;-82
2021/01/19 03:36:44;;;;;;;2.83;2.27;;;;;;;-0.61;80.67;99568.53;5053545;28;20563;-82
2021/01/19 03:39:10;;;;;;;4.40;1.93;;;;;;;-0.65;80.49;99564.34;5052262;28;20496;-82
2021/01/19 03:41:37;;;;;;;7.53;2.53;;;;;;;-0.64;80.71;99553.53;5053173;28;20053;-84
2021/01/19 03:44:04;;;;;;;4.93;2.33;;;;;;;-0.72;81.56;99540.72;5053010;28;20570;-82
2021/01/19 03:46:31;;;;;;;6.10;2.33;;;;;;;-0.63;80.83;99554.38;5052565;28;20060;-84
2021/01/19 03:48:58;;;;;;;3.97;2.07;;;;;;;-0.68;80.76;99545.84;5053432;28;20056;-84
2021/01/19 03:51:25;;;;;;;4.33;2.03;;;;;;;-0.58;80.87;99555.78;5051326;28;20106;-84
2021/01/19 03:53:52;;;;;;;5.50;2.30;;;;;;;-0.54;80.70;99545.78;5052305;28;20045;-84
2021/01/19 03:56:19;;;;;;;4.23;2.00;;;;;;;-0.47;80.46;99540.84;5052030;28;20064;-83
2021/01/19 03:58:46;;;;;;;3.37;2.20;;;;;;;-0.42;80.03;99555.63;5053090;28;20071;-84
2021/01/19 04:01:12;;;;;;;6.17;2.53;;;;;;;-0.49;80.38;99550.81;5051834;28;20502;-83
2021/01/19 04:03:39;;;;;;;4.37;2.10;;;;;;;-0.67;80.23;99523.53;5052709;28;20481;-84
2021/01/19 04:06:06;;;;;;;2.63;2.00;;;;;;;-0.62;80.42;99518.72;5052627;28;20049;-83
2021/01/19 04:08:35;;;;;;;4.50;2.07;;;;;;;-0.61;80.28;99510.63;5052410;28;20182;-84
2021/01/19 04:11:01;;;;;;;4.00;2.07;;;;;;;-0.71;80.39;99498.84;5052279;28;20083;-84
2021/01/19 04:13:28;;;;;;;3.20;2.53;;;;;;;-0.46;79.68;99529.22;5052203;28;20049;-83
2021/01/19 04:15:55;;;;;;;4.27;2.03;;;;;;;-0.63;80.33;99498.31;5052186;28;20076;-83
2021/01/19 04:18:22;;;;;;;3.57;2.17;;;;;;;-0.45;80.12;99520.22;5051909;28;20052;-83
2021/01/19 04:20:48;;;;;;;6.77;2.67;;;;;;;-0.53;80.44;99499.41;5052336;28;20083;-84
2021/01/19 04:23:15;;;;;;;4.20;1.83;;;;;;;-0.50;78.86;99501.84;5052397;28;20049;-84
2021/01/19 04:25:43;;;;;;;2.70;1.83;;;;;;;-0.40;78.75;99510.09;5049761;28;20079;-84
2021/01/19 04:28:09;;;;;;;3.43;2.00;;;;;;;-0.37;79.07;99515.22;5052861;28;20052;-83
2021/01/19 04:30:36;;;;;;;2.63;1.73;;;;;;;-0.57;79.14;99472.06;5051429;28;20053;-83
2021/01/19 04:33:02;;;;;;;3.83;1.67;;;;;;;-0.36;78.76;99504.44;5052228;28;20413;-84
2021/01/19 04:35:29;;;;;;;5.40;2.00;;;;;;;-0.46;79.00;99483.81;5033760;28;20266;-84
2021/01/19 04:37:55;;;;;;;5.57;2.03;;;;;;;-0.33;78.87;99492.69;5052160;28;20075;-84
2021/01/19 04:40:22;;;;;;;4.67;1.77;;;;;;;-0.34;78.23;99495.47;5051744;28;20049;-83
2021/01/19 04:42:49;;;;;;;6.07;2.90;;;;;;;-0.42;78.69;99478.16;5052141;28;20064;-84
2021/01/19 04:45:16;;;;;;;6.57;1.80;;;;;;;-0.47;79.66;99474.09;5051760;28;20053;-84
2021/01/19 04:47:42;;;;;;;4.67;1.87;;;;;;;-0.50;79.26;99463.63;5050835;28;20053;-84
2021/01/19 04:50:11;;;;;;;2.10;1.80;;;;;;;-0.46;78.81;99463.28;5051376;28;20106;-84
2021/01/19 04:52:40;;;;;;;3.10;1.80;;;;;;;-0.43;78.86;99478.25;5051118;28;20045;-84
2021/01/19 04:55:08;;;;;;;7.30;2.40;;;;;;;-0.47;79.58;99474.94;5052068;28;20099;-84
2021/01/19 04:57:37;;;;;;;3.23;1.80;;;;;;;-0.33;78.63;99479.34;5051566;28;20382;-84
2021/01/19 05:00:09;;;;;;;5.27;2.10;;;;;;;-0.31;79.22;99471.22;5052085;28;20057;-84
2021/01/19 05:03:01;;;;;;;3.50;1.80;;;;;;;-0.30;77.80;99460.41;5051896;28;20056;-84
2021/01/19 05:05:58;;;;;;;3.23;2.00;;;;;;;-0.27;78.49;99454.84;5047084;28;20064;-84
2021/01/19 05:08:50;;;;;;;1.83;1.70;;;;;;;-0.47;78.48;99421.50;5051697;28;20049;-84
2021/01/19 05:11:23;;;;;;;5.87;2.37;;;;;;;-0.45;78.27;99421.41;5051229;28;20117;-83
2021/01/19 05:13:55;;;;;;;3.33;1.90;;;;;;;-0.49;78.22;99428.78;5051103;28;20071;-83
2021/01/19 05:16:24;;;;;;;4.67;1.77;;;;;;;-0.57;79.12;99404.44;5050602;28;20045;-83
2021/01/19 05:18:51;;;;;;;4.18;1.77;;;;;;;-0.45;78.29;99414.25;5051426;28;20048;-84
2021/01/19 05:21:18;;;;;;;2.03;1.70;;;;;;;-0.44;78.13;99423.13;5050684;28;20054;-83
2021/01/19 05:23:45;;;;;;;3.83;1.67;;;;;;;-0.52;78.25;99407.63;5041725;28;20045;-83
2021/01/19 05:26:14;;;;;;;2.10;1.90;;;;;;;-0.39;78.82;99435.19;5050406;28;20057;-83
2021/01/19 05:28:43;;;;;;;4.83;2.43;;;;;;;-0.36;78.58;99418.09;5049969;28;20132;-83
2021/01/19 05:31:34;;;;;;;6.40;1.80;;;;;;;-0.40;78.32;99422.78;5050967;28;20503;-83
2021/01/19 05:34:10;;;;;;;5.47;1.77;;;;;;;-0.63;77.49;99373.69;5049869;28;20045;-83
2021/01/19 05:36:39;;;;;;;2.40;1.50;;;;;;;-0.49;78.36;99386.06;5050217;28;20049;-83
2021/01/19 05:39:07;;;;;;;1.63;1.35;;;;;;;-0.52;78.07;99385.44;5044611;28;20060;-84
2021/01/19 05:41:37;;;;;;;3.77;2.23;;;;;;;-0.61;77.90;99386.94;5051215;28;20406;-84
2021/01/19 05:44:15;;;;;;;4.35;1.90;;;;;;;-0.45;78.34;99403.56;5051132;28;20128;-83
2021/01/19 05:46:44;;;;;;;2.00;1.70;;;;;;;-0.55;78.36;99399.84;5051315;28;20056;-83
2021/01/19 05:49:16;;;;;;;6.35;2.20;;;;;;;-0.63;78.55;99375.47;5050784;28;20045;-83
2021/01/19 05:51:44;;;;;;;4.40;1.97;;;;;;;-0.61;77.90;99373.56;5051145;28;20071;-83
2021/01/19 05:54:21;;;;;;;3.03;1.90;;;;;;;-0.49;78.28;99398.56;5051151;28;20044;-84
2021/01/19 05:56:49;;;;;;;4.40;2.07;;;;;;;-0.58;77.93;99384.03;5051203;28;20049;-83
2021/01/19 05:59:30;;;;;;;4.60;2.00;;;;;;;-0.55;78.90;99384.66;5050876;28;20041;-83
2021/01/19 06:02:28;;;;;;;;;;;;;;;;;;;;;
2021/01/19 06:05:07;;;;;;;2.10;1.60;;;;;;;-0.77;78.24;99341.75;5052322;28;20041;-88
2021/01/19 06:07:38;;;;;;;5.50;3.77;;;;;;;-0.52;77.56;99383.59;5051398;28;20079;-85
2021/01/19 06:10:09;;;;;;;8.63;2.60;;;;;;;-0.52;77.58;99372.91;5049611;28;20045;-88
2021/01/19 06:12:36;;;;;;;5.33;2.57;;;;;;;-0.57;78.15;99372.41;5048277;28;20501;-88
2021/01/19 06:15:05;;;;;;;5.43;2.17;;;;;;;-0.66;77.96;99352.53;5050998;28;20051;-88
2021/01/19 06:17:32;;;;;;;2.25;1.73;;;;;;;-0.68;78.34;99340.25;5054784;28;20056;-88
2021/01/19 06:20:00;;;;;;;5.50;2.77;;;;;;;-0.70;78.34;99343.03;5055125;28;20139;-88
2021/01/19 06:22:29;;;;;;;2.10;1.90;;;;;;;-0.74;77.80;99339.75;5055022;28;20391;-87
2021/01/19 06:24:59;;;;;;;3.37;2.20;;;;;;;-0.83;78.01;99335.03;5054232;28;20068;-86
2021/01/19 06:27:29;;;;;;;5.33;1.93;;;;;;;-0.79;78.15;99339.19;5055001;28;20057;-86
2021/01/19 06:30:09;;;;;;;4.10;2.30;;;;;;;-0.90;78.05;99325.75;5053693;28;20095;-86
2021/01/19 06:32:38;;;;;;;3.10;2.15;;;;;;;-0.95;77.90;99334.09;5054485;28;20390;-86
2021/01/19 06:35:13;;;;;;;3.50;2.17;;;;;;;-0.94;78.25;99343.78;5054605;28;20057;-86
2021/01/19 06:37:43;;;;;;;4.00;2.23;;;;;;;-0.92;77.81;99349.03;5049696;28;20049;-86
2021/01/19 06:40:11;;;;;;;7.67;2.17;;;;;;;-0.69;78.25;99375.91;5054505;28;20048;-86
2021/01/19 06:42:41;;;;;;;3.43;1.73;;;;;;;-0.72;78.35;99369.00;5053644;28;20053;-86
2021/01/19 06:45:10;;;;;;;3.28;2.20;;;;;;;-0.77;78.41;99360.44;5034761;28;20050;-86
2021/01/19 06:47:47;;;;;;;4.17;2.10;;;;;;;-0.95;78.50;99336.75;5052991;28;20064;-86
2021/01/19 06:50:14;;;;;;;3.53;2.20;;;;;;;-0.93;78.53;99337.50;5054213;28;20059;-86
2021/01/19 06:52:41;;;;;;;8.03;2.33;;;;;;;-0.97;78.67;99332.50;5053996;28;20056;-86
2021/01/19 06:55:24;;;;;;;6.40;2.10;;;;;;;-0.85;78.07;99323.63;5054351;28;20405;-85
2021/01/19 06:58:16;;;;;;;3.53;2.43;;;;;;;-0.92;78.08;99301.84;5053897;28;20060;-86
2021/01/19 07:00:43;;;;;;;3.33;2.37;;;;;;;-0.74;78.47;99329.06;5034579;28;20052;-86
2021/01/19 07:03:33;;;;;;;4.53;2.37;;;;;;;-0.93;78.36;99307.31;5053165;28;20076;-85
2021/01/19 07:06:01;;;;;;;6.75;2.25;;;;;;;-0.81;78.36;99322.44;5053855;28;20060;-85
2021/01/19 07:09:17;;;;;;;4.40;2.43;;;;;;;-0.90;78.12;99318.59;5054217;28;20111;-85
2021/01/19 07:12:06;;;;;;;6.67;2.50;;;;;;;-0.76;78.00;99327.44;5053264;28;20041;-87
2021/01/19 07:14:58;;;;;;;4.33;2.20;;;;;;;-0.93;77.91;99286.78;5056258;28;20355;-86
2021/01/19 07:17:52;;;;;;;5.53;2.27;;;;;;;-0.77;77.24;99310.59;5065638;28;20362;-86
2021/01/19 07:20:29;;;;;;;5.63;2.23;;;;;;;-0.92;77.38;99304.53;5055048;28;20086;-86
2021/01/19 07:23:01;;;;;;;4.67;2.47;;;;;;;-0.91;77.82;99305.38;5054027;28;20049;-86
2021/01/19 07:25:31;;;;;;;4.23;2.47;;;;;;;-1.08;78.25;99291.38;5053770;28;20122;-86
2021/01/19 07:28:03;;;;;;;4.18;2.75;;;;;;;-0.96;78.30;99311.03;5053806;28;20085;-86
2021/01/19 07:30:32;;;;;;;3.80;2.60;;;;;;;-1.14;78.44;99272.31;5053406;28;20049;-85
2021/01/19 07:33:00;;;;;;;5.40;2.43;;;;;;;-0.99;77.14;99300.56;5051234;28;20049;-86
2021/01/19 07:35:33;;;;;;;4.30;2.50;;;;;;;-1.04;77.76;99302.69;5052622;28;20063;-86
2021/01/19 07:38:01;;;;;;;7.97;3.30;;;;;;;-1.07;77.95;99287.78;5052035;28;20063;-86
2021/01/19 07:40:28;;;;;;;5.67;3.33;;;;;;;-0.95;77.97;99302.06;5053222;28;20041;-86
2021/01/19 07:42:54;;;;;;;4.87;2.90;;;;;;;-0.87;77.90;99309.53;5054092;28;20044;-86
2021/01/19 07:45:31;;;;;;;5.23;2.57;;;;;;;-0.98;77.60;99274.72;5053276;28;20049;-86
2021/01/19 07:48:07;;;;;;;10.47;3.10;;;;;;;-0.91;77.27;99278.66;5035470;28;20060;-85
2021/01/19 07:50:42;;;;;;;9.87;2.50;;;;;;;-1.05;77.57;99262.78;5053401;28;20083;-86
2021/01/19 07:53:11;;;;;;;3.93;2.13;;;;;;;-0.86;77.34;99283.69;5034156;28;20488;-86
2021/01/19 07:55:45;;;;;;;7.80;3.13;;;;;;;-0.97;77.49;99255.94;5049221;28;20072;-86
2021/01/19 07:58:18;;;;;;;5.70;2.90;;;;;;;-0.81;76.79;99276.19;5052922;28;20067;-86
2021/01/19 08:00:47;;;;;;;5.80;3.33;;;;;;;-0.76;76.92;99292.75;5053432;28;20496;-85
2021/01/19 08:03:19;;;;;;;3.97;2.83;;;;;;;-0.73;77.33;99282.69;5052616;28;20053;-85
2021/01/19 08:05:50;;;;;;;3.83;2.33;;;;;;;-0.79;77.04;99260.94;5053253;28;20068;-85
2021/01/19 08:08:22;;;;;;;4.37;2.57;;;;;;;-0.75;76.92;99257.09;5052690;28;20048;-86
2021/01/19 08:11:01;;;;;;;5.80;2.83;;;;;;;-0.63;76.54;99249.97;5052857;28;20056;-85
2021/01/19 08:13:27;;;;;;;4.00;2.30;;;;;;;-0.53;76.33;99264.38;5052559;28;20079;-82
2021/01/19 08:16:03;;;;;;;7.77;2.63;;;;;;;-0.69;75.93;99243.28;5052262;28;20447;-82
2021/01/19 08:18:43;;;;;;;3.03;2.33;;;;;;;-0.48;76.35;99256.03;5052275;28;20134;-82
2021/01/19 08:21:12;;;;;;;4.43;2.57;;;;;;;-0.39;75.88;99245.53;5052698;28;20057;-82
2021/01/19 08:23:39;;;;;;;5.37;2.80;;;;;;;-0.43;76.31;99236.03;5052783;28;20053;-82
2021/01/19 08:26:08;;;;;;;9.13;3.43;;;;;;;-0.33;76.13;99217.50;5032621;28;20425;-82
2021/01/19 08:28:35;;;;;;;4.97;2.40;;;;;;;-0.17;75.29;99227.88;5047891;28;20049;-83
2021/01/19 08:31:04;;;;;;;3.77;2.20;;;;;;;-0.18;75.32;99207.50;5035493;28;20052;-86
2021/01/19 08:33:31;;;;;;;3.13;1.98;;;;;;;-0.17;75.46;99208.34;5042133;28;20053;-87
2021/01/19 08:36:07;;;;;;;6.30;2.50;;;;;;;-0.25;75.22;99203.56;5051854;28;20055;-87
2021/01/19 08:38:35;;;;;;;5.77;2.90;;;;;;;0.00;74.99;99223.97;5052386;28;20469;-86
2021/01/19 08:41:08;;;;;;;3.60;2.37;;;;;;;-0.04;74.64;99201.09;5049774;28;20129;-88
2021/01/19 08:43:35;;;;;;;4.43;3.13;;;;;;;-0.01;73.83;99192.84;5047086;28;20066;-88
2021/01/19 08:46:02;;;;;;;5.90;2.43;;;;;;;0.02;74.50;99183.75;5032444;28;20106;-88
2021/01/19 08:48:29;;;;;;;3.93;2.17;;;;;;;0.13;72.90;99222.03;5039806;28;20498;-87
2021/01/19 08:50:55;;;;;;;3.33;2.43;;;;;;;0.25;73.42;99212.22;5041969;28;20068;-87
2021/01/19 08:53:28;;;;;;;5.93;2.37;;;;;;;0.57;72.69;99222.25;5052250;28;20052;-88
2021/01/19 08:55:56;;;;;;;7.30;2.17;;;;;;;0.47;72.85;99184.69;5052233;28;20071;-87
2021/01/19 08:58:23;;;;;;;3.83;2.03;;;;;;;0.67;72.62;99217.03;5052497;28;20405;-88
2021/01/19 09:00:49;;;;;;;3.27;2.00;;;;;;;0.65;72.38;99216.31;5052276;28;20056;-88
2021/01/19 09:03:17;;;;;;;7.40;2.45;;;;;;;0.59;72.90;99169.50;5052098;28;20397;-87
2021/01/19 09:05:44;;;;;;;5.80;2.90;;;;;;;0.83;73.10;99211.34;5052250;28;20067;-88
2021/01/19 09:08:15;;;;;;;8.73;2.10;;;;;;;0.57;73.45;99174.09;5052090;28;20139;-88
2021/01/19 09:10:42;;;;;;;7.73;2.23;;;;;;;0.80;73.41;99219.59;5052163;28;20147;-88
2021/01/19 09:13:11;;;;;;;7.80;2.57;;;;;;;0.68;73.64;99205.38;5051774;28;20063;-87
2021/01/19 09:15:39;;;;;;;12.40;2.93;;;;;;;0.75;73.75;99195.88;5051703;28;20049;-88
2021/01/19 09:18:14;;;;;;;3.57;1.77;;;;;;;0.86;73.46;99206.59;5054790;28;20071;-87
2021/01/19 09:20:42;;;;;;;8.40;2.13;;;;;;;0.82;73.09;99181.03;5054719;28;20056;-87
2021/01/19 09:23:15;;;;;;;4.07;2.57;;;;;;;0.84;73.19;99160.38;5063588;28;20067;-86
2021/01/19 09:25:42;;;;;;;6.00;2.17;;;;;;;0.96;72.96;99179.91;5055836;28;20060;-88
2021/01/19 09:28:10;;;;;;;5.53;2.33;;;;;;;0.86;72.52;99169.13;5054511;28;20056;-87
2021/01/19 09:30:36;;;;;;;5.73;1.97;;;;;;;0.82;72.63;99153.44;5052327;28;20095;-87
2021/01/19 09:33:07;;;;;;;4.55;2.25;;;;;;;0.89;73.30;99170.72;5052078;28;20041;-87
2021/01/19 09:35:37;;;;;;;9.55;2.42;;;;;;;0.85;73.43;99162.06;5051845;28;20068;-88
2021/01/19 09:38:12;;;;;;;9.85;2.80;;;;;;;1.01;73.17;99163.47;5051595;28;20056;-87
2021/01/19 09:40:41;;;;;;;6.88;2.85;;;;;;;0.96;72.71;99149.63;5052469;28;20087;-86
2021/01/19 09:43:13;;;;;;;8.17;2.37;;;;;;;0.80;72.32;99131.28;5051453;28;20063;-87
2021/01/19 09:45:40;;;;;;;7.35;2.38;;;;;;;0.94;72.53;99130.19;5051783;28;20063;-88
2021/01/19 09:48:08;;;;;;;7.33;2.50;;;;;;;0.91;71.71;99119.72;5051383;28;20091;-87
2021/01/19 09:50:39;;;;;;;7.78;2.40;;;;;;;0.88;72.61;99116.31;5052285;28;20057;-88
2021/01/19 09:53:11;;;;;;;11.07;2.75;;;;;;;1.03;71.51;99140.13;5055579;28;20102;-88
2021/01/19 09:55:38;;;;;;;4.82;2.22;;;;;;;0.99;72.25;99120.78;5055785;28;20068;-87
2021/01/19 09:58:06;;;;;;;4.53;2.27;;;;;;;1.01;72.32;99123.31;5055992;28;20045;-87
2021/01/19 10:00:35;;;;;;;2.67;2.23;;;;;;;0.94;72.59;99124.81;5056083;28;20146;-86
2021/01/19 10:03:11;;;;;;;11.97;3.63;;;;;;;0.80;73.05;99107.19;5055779;28;20136;-87
2021/01/19 10:05:41;;;;;;;9.13;3.83;;;;;;;1.01;72.55;99121.53;5054811;28;20061;-88
2021/01/19 10:08:08;;;;;;;9.43;2.38;;;;;;;0.92;72.75;99100.00;5055800;28;20052;-87
2021/01/19 10:10:37;;;;;;;4.22;2.50;;;;;;;0.88;71.31;99107.44;5055266;28;20052;-87
2021/01/19 10:13:08;;;;;;;7.80;2.88;;;;;;;1.01;71.87;99121.53;5055401;28;20095;-87
2021/01/19 10:15:36;;;;;;;8.35;2.30;;;;;;;0.71;71.30;99087.41;5054309;28;20405;-86
2021/01/19 10:18:04;;;;;;;4.95;2.72;;;;;;;0.79;72.16;99092.13;5055852;28;20056;-87
2021/01/19 10:20:37;;;;;;;6.40;2.30;;;;;;;0.83;71.69;99098.94;5054952;28;20057;-87
2021/01/19 10:23:07;;;;;;;4.57;2.17;;;;;;;0.88;72.61;99104.75;5055443;28;20072;-87
2021/01/19 10:25:34;;;;;;;;;;;;;;;1.05;71.15;99114.94;5055129;28;20081;-87
2021/01/19 10:28:02;;;;;;;2.77;2.10;;;;;;;0.92;71.08;99082.13;5055628;28;19925;-86
2021/01/19 10:30:30;;;;;;;4.67;2.27;;;;;;;0.98;71.71;99100.34;5055489;28;20141;-87
2021/01/19 10:32:58;;;;;;;6.57;2.23;;;;;;;0.98;71.88;99070.03;5054952;28;20041;-87
2021/01/19 10:35:27;;;;;;;3.87;2.40;;;;;;;1.03;71.40;99083.91;5055023;28;20061;-87
2021/01/19 10:37:56;;;;;;;4.70;2.67;;;;;;;0.93;72.05;99062.38;5054817;28;20052;-86
2021/01/19 10:40:23;;;;;;;3.27;2.00;;;;;;;0.91;72.39;99050.97;5055701;28;20049;-87
2021/01/19 10:42:53;;;;;;;3.90;2.60;;;;;;;0.90;72.32;99048.41;5054500;28;20287;-87
2021/01/19 10:45:28;;;;;;;3.45;1.80;;;;;;;0.85;71.81;99038.09;5054477;28;20071;-86
2021/01/19 10:47:56;;;;;;;5.83;2.63;;;;;;;0.77;73.39;99028.03;5054676;28;20056;-87
2021/01/19 10:50:30;;;;;;;5.25;2.63;;;;;;;0.70;73.69;99013.44;5042646;28;20057;-88
2021/01/19 10:52:58;;;;;;;4.97;2.80;;;;;;;0.76;73.77;99007.59;5055518;28;20044;-87
2021/01/19 10:55:25;;;;;;;3.75;2.30;;;;;;;0.75;73.51;99008.53;5055901;28;20056;-86
2021/01/19 10:57:57;;;;;;;3.83;2.30;;;;;;;0.77;73.84;99014.63;5056242;28;20045;-86
2021/01/19 11:00:29;;;;;;;8.02;2.45;;;;;;;0.83;74.39;99022.16;5055237;28;20428;-86
2021/01/19 11:03:00;;;;;;;4.32;2.38;;;;;;;0.82;74.23;98987.50;5054821;28;20045;-87
2021/01/19 11:05:29;;;;;;;9.80;2.78;;;;;;;0.88;74.38;99005.72;5054757;28;20052;-87
2021/01/19 11:07:59;;;;;;;4.95;2.40;;;;;;;0.89;74.04;98975.31;5054571;28;20056;-87
2021/01/19 11:10:27;;;;;;;7.18;2.83;;;;;;;1.03;74.11;98995.56;5053881;28;20106;-87
2021/01/19 11:12:55;;;;;;;25.40;7.70;;;;;;;0.90;73.50;98968.97;5052845;28;20037;-86
2021/01/19 11:15:23;;;;;;;12.13;5.20;;;;;;;1.03;74.15;98984.84;5054660;28;20045;-88
2021/01/19 11:17:51;;;;;;;34.40;11.68;;;;;;;1.06;73.72;98971.22;5055930;28;20059;-87
2021/01/19 11:20:18;;;;;;;29.52;10.25;;;;;;;1.06;73.73;98961.34;5056170;28;20051;-87
2021/01/19 11:22:47;;;;;;;24.55;8.73;;;;;;;1.25;73.55;98975.88;5050103;28;20041;-87
2021/01/19 11:25:14;;;;;;;15.60;5.25;;;;;;;1.31;73.34;98975.34;5053631;28;20053;-86
2021/01/19 11:27:41;;;;;;;12.82;4.82;;;;;;;1.20;74.13;98973.56;5053988;28;20370;-86
2021/01/19 11:30:09;;;;;;;11.45;3.70;;;;;;;1.31;73.01;98961.97;5057007;28;20053;-86
2021/01/19 11:32:35;;;;;;;7.38;2.92;;;;;;;1.20;72.66;98970.88;5054557;28;20082;-85
2021/01/19 11:35:02;;;;;;;8.27;3.67;;;;;;;1.19;73.40;98944.22;5053673;28;20052;-86
2021/01/19 11:37:29;;;;;;;7.97;3.85;;;;;;;1.28;72.94;98969.38;5053271;28;20072;-85
2021/01/19 11:39:58;;;;;;;3.95;2.58;;;;;;;1.19;73.51;98954.94;5039905;28;20042;-85
2021/01/19 11:42:25;;;;;;;12.20;5.07;;;;;;;1.14;74.00;98944.63;5052641;28;20045;-86
2021/01/19 11:44:57;;;;;;;6.35;2.85;;;;;;;1.35;73.45;98960.69;5047747;28;20045;-86
2021/01/19 11:47:23;;;;;;;8.32;3.03;;;;;;;1.43;73.50;98962.75;5052769;28;20052;-86
2021/01/19 11:49:49;;;;;;;5.05;3.33;;;;;;;1.30;72.82;98924.59;5053691;28;20485;-85
2021/01/19 11:52:17;;;;;;;4.88;3.55;;;;;;;1.31;73.26;98907.53;5052166;28;20386;-85